Time;durP1;ratioP1;P1;durP2;ratioP2;P2;SDS_P1;SDS_P2;PMS_P1;PMS_P2;Temp;Humidity;BMP_temperature;BMP_pressure;BME280_temperature;BME280_humidity;BME280_pressure;Samples;Min_cycle;Max_cycle;Signal;HPM_P1;HPM_P2
2022/07/14 00:01:48;;;;;;;1.95;0.52;;;;;;;;;;5106114;28;20085;-74
2022/07/14 00:04:16;;;;;;;3.42;1.17;;;;;;;;;;5097811;28;20044;-73
2022/07/14 00:06:41;;;;;;;1.55;0.65;;;;;;;;;;5100632;28;20084;-73
2022/07/14 00:09:07;;;;;;;3.47;0.90;;;;;;;;;;5100770;28;20027;-73
2022/07/14 00:11:32;;;;;;;0.30;0.30;;;;;;;;;;5108354;28;20380;-73
2022/07/14 00:13:58;;;;;;;1.35;0.88;;;;;;;;;;5099245;28;20035;-73
2022/07/14 00:16:24;;;;;;;0.68;0.50;;;;;;;;;;5098667;28;20080;-73
2022/07/14 00:18:50;;;;;;;3.40;1.25;;;;;;;;;;5097317;28;20081;-73
2022/07/14 00:21:16;;;;;;;2.08;0.82;;;;;;;;;;5094623;28;20418;-73
2022/07/14 00:23:42;;;;;;;2.97;0.60;;;;;;;;;;5103247;28;20466;-73
2022/07/14 00:26:07;;;;;;;3.95;1.85;;;;;;;;;;5107425;28;20059;-73
2022/07/14 00:28:34;;;;;;;0.63;0.38;;;;;;;;;;5108872;28;20584;-73
2022/07/14 00:31:03;;;;;;;1.05;0.98;;;;;;;;;;5104119;28;20034;-73
2022/07/14 00:33:35;;;;;;;3.63;1.13;;;;;;;;;;5096449;28;20060;-73
2022/07/14 00:36:02;;;;;;;0.40;0.40;;;;;;;;;;5101028;28;20034;-73
2022/07/14 00:38:28;;;;;;;0.25;0.20;;;;;;;;;;5106137;28;20023;-73
2022/07/14 00:40:56;;;;;;;1.13;0.57;;;;;;;;;;5104789;28;20023;-73
2022/07/14 00:43:24;;;;;;;0.70;0.65;;;;;;;;;;5109626;28;20376;-73
2022/07/14 00:45:50;;;;;;;1.10;0.30;;;;;;;;;;5100183;28;20098;-73
2022/07/14 00:48:17;;;;;;;1.65;0.95;;;;;;;;;;5110719;28;20115;-85
2022/07/14 00:50:45;;;;;;;3.75;1.25;;;;;;;;;;5090682;28;20024;-82
2022/07/14 00:53:11;;;;;;;0.90;0.55;;;;;;;;;;5100921;28;20028;-84
2022/07/14 00:55:42;;;;;;;7.55;0.85;;;;;;;;;;5096184;28;20028;-84
2022/07/14 00:58:10;;;;;;;2.15;0.73;;;;;;;;;;5099544;28;20119;-84
2022/07/14 01:00:35;;;;;;;1.42;0.93;;;;;;;;;;5104088;28;20023;-85
2022/07/14 01:03:00;;;;;;;3.92;0.40;;;;;;;;;;5110873;28;20110;-85
2022/07/14 01:05:26;;;;;;;0.65;0.63;;;;;;;;;;5095593;28;20043;-84
2022/07/14 01:07:51;;;;;;;2.10;0.60;;;;;;;;;;5102891;28;20036;-84
2022/07/14 01:10:17;;;;;;;2.38;0.55;;;;;;;;;;5093840;28;20035;-84
2022/07/14 01:12:46;;;;;;;0.43;0.40;;;;;;;;;;5107042;28;20031;-86
2022/07/14 01:15:18;;;;;;;1.67;0.95;;;;;;;;;;5100879;28;20059;-85
2022/07/14 01:17:47;;;;;;;0.85;0.55;;;;;;;;;;5095059;28;20019;-83
2022/07/14 01:20:14;;;;;;;0.65;0.65;;;;;;;;;;5103884;28;20035;-85
2022/07/14 01:22:39;;;;;;;1.23;0.40;;;;;;;;;;5110776;28;20039;-85
2022/07/14 01:25:06;;;;;;;0.82;0.55;;;;;;;;;;5096713;28;20027;-84
2022/07/14 01:27:35;;;;;;;1.75;1.55;;;;;;;;;;5097765;28;20027;-84
2022/07/14 01:30:00;;;;;;;1.65;0.55;;;;;;;;;;5095191;28;20036;-85
2022/07/14 01:32:26;;;;;;;0.85;0.60;;;;;;;;;;5100769;28;20024;-83
2022/07/14 01:34:52;;;;;;;2.92;0.60;;;;;;;;;;5094480;28;20070;-84
2022/07/14 01:37:18;;;;;;;1.35;0.60;;;;;;;;;;5103427;28;20031;-82
2022/07/14 01:39:45;;;;;;;0.20;0.20;;;;;;;;;;5089399;28;20024;-85
2022/07/14 01:42:11;;;;;;;1.35;0.47;;;;;;;;;;5093434;28;20028;-85
2022/07/14 01:44:39;;;;;;;10.73;1.10;;;;;;;;;;5094294;28;20019;-85
2022/07/14 01:47:08;;;;;;;1.60;0.55;;;;;;;;;;5112925;28;20023;-85
2022/07/14 01:49:35;;;;;;;0.70;0.45;;;;;;;;;;5108255;28;20030;-84
2022/07/14 01:52:01;;;;;;;0.95;0.45;;;;;;;;;;5099589;28;20373;-85
2022/07/14 01:54:26;;;;;;;1.75;0.93;;;;;;;;;;5083363;28;20027;-84
2022/07/14 01:56:54;;;;;;;3.40;0.82;;;;;;;;;;5092875;28;20028;-84
2022/07/14 01:59:21;;;;;;;1.17;0.30;;;;;;;;;;5092920;28;20438;-84
2022/07/14 02:01:47;;;;;;;1.80;0.85;;;;;;;;;;5086169;28;20040;-84
2022/07/14 02:04:17;;;;;;;1.13;0.80;;;;;;;;;;5102554;28;20035;-83
2022/07/14 02:06:42;;;;;;;0.82;0.60;;;;;;;;;;5093755;28;20031;-84
2022/07/14 02:09:08;;;;;;;1.08;0.98;;;;;;;;;;5093667;28;20028;-82
2022/07/14 02:14:20;;;;;;;1.48;0.93;;;;;;;;;;5110822;28;20099;-83
2022/07/14 02:16:47;;;;;;;2.72;0.40;;;;;;;;;;5098114;28;20020;-86
2022/07/14 02:19:13;;;;;;;1.70;1.05;;;;;;;;;;5105895;28;20024;-85
2022/07/14 02:21:39;;;;;;;1.73;0.55;;;;;;;;;;5112602;28;20046;-85
2022/07/14 02:24:07;;;;;;;0.43;0.43;;;;;;;;;;5077051;28;20150;-82
2022/07/14 02:26:32;;;;;;;7.97;1.25;;;;;;;;;;5106616;28;20049;-85
2022/07/14 02:28:57;;;;;;;1.77;0.93;;;;;;;;;;5095600;28;20309;-85
2022/07/14 02:31:23;;;;;;;3.83;0.68;;;;;;;;;;5098385;28;20051;-83
2022/07/14 02:33:51;;;;;;;2.80;1.55;;;;;;;;;;5112911;28;20061;-85
2022/07/14 02:36:16;;;;;;;0.22;0.22;;;;;;;;;;5102286;28;20039;-84
2022/07/14 02:38:42;;;;;;;0.25;0.25;;;;;;;;;;5098800;28;20020;-81
2022/07/14 02:41:07;;;;;;;1.98;0.70;;;;;;;;;;5098617;28;20047;-83
2022/07/14 02:43:33;;;;;;;1.23;0.75;;;;;;;;;;5116140;28;20089;-85
2022/07/14 02:46:01;;;;;;;2.78;0.35;;;;;;;;;;5103271;28;20031;-85
2022/07/14 02:48:29;;;;;;;0.95;0.47;;;;;;;;;;5096956;28;20028;-83
2022/07/14 02:51:05;;;;;;;2.95;1.10;;;;;;;;;;5103566;28;20433;-84
2022/07/14 02:53:32;;;;;;;1.35;1.10;;;;;;;;;;5110322;28;20032;-82
2022/07/14 02:56:06;;;;;;;0.55;0.55;;;;;;;;;;5104469;28;20512;-84
2022/07/14 02:58:32;;;;;;;0.50;0.40;;;;;;;;;;5095344;28;20428;-84
2022/07/14 03:00:58;;;;;;;4.32;1.42;;;;;;;;;;5108510;28;20032;-83
2022/07/14 03:03:28;;;;;;;1.17;0.75;;;;;;;;;;5106437;28;20032;-86
2022/07/14 03:05:54;;;;;;;2.60;2.05;;;;;;;;;;5093218;28;20028;-83
2022/07/14 03:08:21;;;;;;;2.17;1.38;;;;;;;;;;5099576;28;20119;-85
2022/07/14 03:10:49;;;;;;;3.25;0.93;;;;;;;;;;5106548;28;20008;-84
2022/07/14 03:13:14;;;;;;;2.70;0.68;;;;;;;;;;5093147;28;20381;-85
2022/07/14 03:15:44;;;;;;;4.57;0.47;;;;;;;;;;5098338;28;20064;-84
2022/07/14 03:18:11;;;;;;;2.10;1.20;;;;;;;;;;5101297;28;20090;-81
2022/07/14 03:20:37;;;;;;;0.80;0.80;;;;;;;;;;5096676;28;20031;-89
2022/07/14 03:23:05;;;;;;;0.75;0.75;;;;;;;;;;5096735;28;20111;-84
2022/07/14 03:25:31;;;;;;;1.08;0.60;;;;;;;;;;5102653;28;20028;-88
2022/07/14 03:27:56;;;;;;;0.85;0.40;;;;;;;;;;5096016;28;20372;-86
2022/07/14 03:30:22;;;;;;;3.97;1.50;;;;;;;;;;5094341;28;20074;-87
2022/07/14 03:32:47;;;;;;;2.80;1.02;;;;;;;;;;5104674;28;20038;-85
2022/07/14 03:35:15;;;;;;;1.15;0.50;;;;;;;;;;5093351;28;20097;-88
2022/07/14 03:37:44;;;;;;;0.55;0.55;;;;;;;;;;5095547;28;20032;-86
2022/07/14 03:40:11;;;;;;;3.10;0.65;;;;;;;;;;5096218;28;20376;-86
2022/07/14 03:42:45;;;;;;;1.30;0.75;;;;;;;;;;5100658;28;20038;-87
2022/07/14 03:45:11;;;;;;;0.35;0.35;;;;;;;;;;5095832;28;20495;-85
2022/07/14 03:47:36;;;;;;;1.30;0.57;;;;;;;;;;5099097;28;20031;-85
2022/07/14 03:50:04;;;;;;;2.58;1.42;;;;;;;;;;5095930;28;20038;-88
2022/07/14 03:52:29;;;;;;;1.70;0.82;;;;;;;;;;5106353;28;20445;-88
2022/07/14 03:54:55;;;;;;;1.65;1.17;;;;;;;;;;5104234;28;20036;-86
2022/07/14 03:57:25;;;;;;;0.93;0.68;;;;;;;;;;5090582;28;20088;-87
2022/07/14 03:59:50;;;;;;;1.23;0.93;;;;;;;;;;5104745;28;20047;-88
2022/07/14 04:02:15;;;;;;;1.42;0.77;;;;;;;;;;5100643;28;20413;-86
2022/07/14 04:04:41;;;;;;;1.23;0.90;;;;;;;;;;5099797;28;20023;-85
2022/07/14 04:07:09;;;;;;;0.88;0.60;;;;;;;;;;5100979;28;20425;-85
2022/07/14 04:09:34;;;;;;;2.35;0.77;;;;;;;;;;5109845;28;20020;-86
2022/07/14 04:12:00;;;;;;;2.90;1.63;;;;;;;;;;5102614;28;20056;-86
2022/07/14 04:14:25;;;;;;;4.57;1.23;;;;;;;;;;5108134;28;20369;-84
2022/07/14 04:16:51;;;;;;;1.98;0.93;;;;;;;;;;5099230;28;20113;-85
2022/07/14 04:19:17;;;;;;;1.40;0.82;;;;;;;;;;5100548;28;20181;-85
2022/07/14 04:21:42;;;;;;;1.88;0.85;;;;;;;;;;5101274;28;20455;-87
2022/07/14 04:24:08;;;;;;;4.28;0.93;;;;;;;;;;5100774;28;20477;-86
2022/07/14 04:26:33;;;;;;;1.33;0.75;;;;;;;;;;5108310;28;20475;-87
2022/07/14 04:28:59;;;;;;;0.50;0.30;;;;;;;;;;5088845;28;20437;-85
2022/07/14 04:31:29;;;;;;;1.85;0.60;;;;;;;;;;5103448;28;20337;-87
2022/07/14 04:33:54;;;;;;;0.52;0.52;;;;;;;;;;5091386;28;20044;-86
2022/07/14 04:36:19;;;;;;;1.50;0.70;;;;;;;;;;5086749;28;20080;-84
2022/07/14 04:38:45;;;;;;;1.65;1.55;;;;;;;;;;5095139;28;20108;-87
2022/07/14 04:41:12;;;;;;;3.20;0.40;;;;;;;;;;5102231;28;20053;-87
2022/07/14 04:43:42;;;;;;;0.90;0.60;;;;;;;;;;5094006;28;20044;-83
2022/07/14 04:46:10;;;;;;;0.77;0.73;;;;;;;;;;5094795;28;20052;-86
2022/07/14 04:54:06;;;;;;;4.25;0.85;;;;;;;;;;5103583;28;20054;-88
2022/07/14 04:56:34;;;;;;;0.80;0.32;;;;;;;;;;5102768;28;20432;-86
2022/07/14 04:59:01;;;;;;;4.50;1.85;;;;;;;;;;5105183;28;20066;-87
2022/07/14 05:01:27;;;;;;;3.53;0.93;;;;;;;;;;5100182;28;20024;-85
2022/07/14 05:03:52;;;;;;;0.32;0.30;;;;;;;;;;5101456;28;20075;-87
2022/07/14 05:06:18;;;;;;;2.85;1.33;;;;;;;;;;5094339;28;20117;-86
2022/07/14 05:08:44;;;;;;;3.30;0.65;;;;;;;;;;5079800;28;20030;-84
2022/07/14 05:11:09;;;;;;;1.40;0.68;;;;;;;;;;5099186;28;20042;-84
2022/07/14 05:13:34;;;;;;;1.48;0.70;;;;;;;;;;5097041;28;20057;-85
2022/07/14 05:16:00;;;;;;;1.98;0.68;;;;;;;;;;5101985;28;20100;-85
2022/07/14 05:18:30;;;;;;;2.42;1.23;;;;;;;;;;5095202;28;20024;-85
2022/07/14 05:20:56;;;;;;;0.90;0.73;;;;;;;;;;5096638;28;20907;-84
2022/07/14 05:23:23;;;;;;;2.40;2.20;;;;;;;;;;5102687;28;20070;-83
2022/07/14 05:25:54;;;;;;;1.27;0.50;;;;;;;;;;5102237;28;20024;-84
2022/07/14 05:28:20;;;;;;;2.72;1.00;;;;;;;;;;5093831;28;20028;-86
2022/07/14 05:30:45;;;;;;;0.75;0.73;;;;;;;;;;5104642;28;20326;-84
2022/07/14 05:33:10;;;;;;;2.33;1.50;;;;;;;;;;5093142;28;20082;-86
2022/07/14 05:35:45;;;;;;;1.98;1.10;;;;;;;;;;5096684;28;20012;-84
2022/07/14 05:38:13;;;;;;;3.40;1.50;;;;;;;;;;5109693;28;20039;-86
2022/07/14 05:40:38;;;;;;;1.65;0.95;;;;;;;;;;5097149;28;20417;-85
2022/07/14 05:43:03;;;;;;;2.55;0.65;;;;;;;;;;5098056;28;20032;-83
2022/07/14 05:45:29;;;;;;;2.53;0.77;;;;;;;;;;5101909;28;20031;-87
2022/07/14 05:47:57;;;;;;;1.88;0.90;;;;;;;;;;5099927;28;20051;-87
2022/07/14 05:50:22;;;;;;;0.85;0.50;;;;;;;;;;5104263;28;20032;-87
2022/07/14 05:52:47;;;;;;;3.65;1.73;;;;;;;;;;5093226;28;20485;-88
2022/07/14 05:55:13;;;;;;;0.47;0.47;;;;;;;;;;5095542;28;20020;-87
2022/07/14 05:57:38;;;;;;;1.48;0.60;;;;;;;;;;5095053;28;20028;-86
2022/07/14 06:00:05;;;;;;;2.33;0.65;;;;;;;;;;5088434;28;20445;-85
2022/07/14 06:02:30;;;;;;;5.72;1.40;;;;;;;;;;5094227;28;20081;-84
2022/07/14 06:04:58;;;;;;;8.98;1.08;;;;;;;;;;5100600;28;20021;-86
2022/07/14 06:07:23;;;;;;;4.72;1.45;;;;;;;;;;5087376;28;20107;-85
2022/07/14 06:09:50;;;;;;;0.65;0.55;;;;;;;;;;5099899;28;20073;-85
2022/07/14 06:12:16;;;;;;;4.20;1.48;;;;;;;;;;5101785;28;20447;-87
2022/07/14 06:14:43;;;;;;;1.27;0.28;;;;;;;;;;5094589;28;20024;-86
2022/07/14 06:17:09;;;;;;;2.15;0.80;;;;;;;;;;5081488;28;20115;-87
2022/07/14 06:19:34;;;;;;;2.53;0.70;;;;;;;;;;5087241;28;20127;-86
2022/07/14 06:22:03;;;;;;;3.72;1.48;;;;;;;;;;5094545;28;20047;-83
2022/07/14 06:24:31;;;;;;;1.30;1.20;;;;;;;;;;5096540;28;20156;-86
2022/07/14 06:26:56;;;;;;;0.45;0.40;;;;;;;;;;5099419;28;20024;-84
2022/07/14 06:29:24;;;;;;;3.75;1.48;;;;;;;;;;5096689;28;20229;-84
2022/07/14 06:31:55;;;;;;;0.85;0.70;;;;;;;;;;5100191;28;20131;-86
2022/07/14 06:34:20;;;;;;;2.72;1.52;;;;;;;;;;5095638;28;20452;-86
2022/07/14 06:36:46;;;;;;;3.08;1.23;;;;;;;;;;5098237;28;20024;-87
2022/07/14 06:39:11;;;;;;;2.30;1.08;;;;;;;;;;5097471;28;20504;-85
2022/07/14 06:41:36;;;;;;;3.03;1.15;;;;;;;;;;5106340;28;20445;-84
2022/07/14 06:44:02;;;;;;;4.03;1.23;;;;;;;;;;5111674;28;20030;-85
2022/07/14 06:46:32;;;;;;;1.00;0.68;;;;;;;;;;5104767;28;20031;-87
2022/07/14 06:48:58;;;;;;;3.67;0.85;;;;;;;;;;5098353;28;20028;-83
2022/07/14 06:51:24;;;;;;;0.68;0.40;;;;;;;;;;5092660;28;20024;-86
2022/07/14 06:53:50;;;;;;;3.72;1.25;;;;;;;;;;5109629;28;20032;-85
2022/07/14 06:56:15;;;;;;;3.97;1.88;;;;;;;;;;5105782;28;20094;-83
2022/07/14 06:58:43;;;;;;;0.75;0.43;;;;;;;;;;5102233;28;20384;-85
2022/07/14 07:01:08;;;;;;;0.40;0.30;;;;;;;;;;5082106;28;20028;-85
2022/07/14 07:03:33;;;;;;;8.77;1.08;;;;;;;;;;5089835;28;20448;-85
2022/07/14 07:08:47;;;;;;;7.22;0.60;;;;;;;;;;5096776;28;20581;-84
2022/07/14 07:11:13;;;;;;;0.85;0.35;;;;;;;;;;5096215;28;20016;-85
2022/07/14 07:13:38;;;;;;;0.65;0.65;;;;;;;;;;5076407;28;20070;-85
2022/07/14 07:16:07;;;;;;;6.32;1.35;;;;;;;;;;5102270;28;20080;-81
2022/07/14 07:18:33;;;;;;;0.98;0.80;;;;;;;;;;5095563;28;20016;-83
2022/07/14 07:21:01;;;;;;;1.45;1.02;;;;;;;;;;5092733;28;20441;-84
2022/07/14 07:23:27;;;;;;;3.50;0.63;;;;;;;;;;5103847;28;20042;-83
2022/07/14 07:25:53;;;;;;;0.90;0.43;;;;;;;;;;5096594;28;20031;-87
2022/07/14 07:28:18;;;;;;;0.75;0.45;;;;;;;;;;5095407;28;20042;-83
2022/07/14 07:30:43;;;;;;;0.75;0.75;;;;;;;;;;5097383;28;20421;-82
2022/07/14 07:33:09;;;;;;;1.23;0.60;;;;;;;;;;5097749;28;20459;-81
2022/07/14 07:35:35;;;;;;;1.83;0.98;;;;;;;;;;5095615;28;20089;-81
2022/07/14 07:38:00;;;;;;;2.05;0.47;;;;;;;;;;5103341;28;20058;-83
2022/07/14 07:40:28;;;;;;;1.52;1.13;;;;;;;;;;5094378;28;20079;-82
2022/07/14 07:42:56;;;;;;;6.18;0.93;;;;;;;;;;5103005;28;20023;-82
2022/07/14 07:45:24;;;;;;;0.50;0.50;;;;;;;;;;5102073;28;20125;-83
2022/07/14 07:47:51;;;;;;;0.93;0.60;;;;;;;;;;5099214;28;20031;-81
2022/07/14 07:50:17;;;;;;;3.13;0.80;;;;;;;;;;5098190;28;20080;-81
2022/07/14 07:52:44;;;;;;;5.32;1.00;;;;;;;;;;5095747;28;20036;-83
2022/07/14 07:55:15;;;;;;;1.75;1.30;;;;;;;;;;5099657;28;20035;-81
2022/07/14 07:57:40;;;;;;;1.58;0.82;;;;;;;;;;5098319;28;20043;-82
2022/07/14 08:00:07;;;;;;;1.50;1.20;;;;;;;;;;5103045;28;20090;-83
2022/07/14 08:02:32;;;;;;;1.90;1.05;;;;;;;;;;5094030;28;20096;-82
2022/07/14 08:04:57;;;;;;;1.85;1.02;;;;;;;;;;5096781;28;20099;-83
2022/07/14 08:07:28;;;;;;;1.27;0.70;;;;;;;;;;5111989;28;20445;-82
2022/07/14 08:09:55;;;;;;;2.80;1.50;;;;;;;;;;5108645;28;20019;-80
2022/07/14 08:12:20;;;;;;;1.00;0.70;;;;;;;;;;5096148;28;20020;-81
2022/07/14 08:14:48;;;;;;;4.03;1.58;;;;;;;;;;5103845;28;20497;-80
2022/07/14 08:17:17;;;;;;;1.83;1.00;;;;;;;;;;5105719;28;20027;-80
2022/07/14 08:19:45;;;;;;;5.32;0.98;;;;;;;;;;5092986;28;20024;-81
2022/07/14 08:22:11;;;;;;;1.77;0.70;;;;;;;;;;5097853;28;20032;-81
2022/07/14 08:24:39;;;;;;;0.50;0.32;;;;;;;;;;5096224;28;20085;-80
2022/07/14 08:27:05;;;;;;;0.57;0.57;;;;;;;;;;5099019;28;20042;-82
2022/07/14 08:29:30;;;;;;;1.90;0.90;;;;;;;;;;5106594;28;20019;-81
2022/07/14 08:31:55;;;;;;;0.95;0.82;;;;;;;;;;5090379;28;20051;-81
2022/07/14 08:34:21;;;;;;;2.40;1.05;;;;;;;;;;5098471;28;20433;-81
2022/07/14 08:36:59;;;;;;;1.85;0.93;;;;;;;;;;5097927;28;20027;-82
2022/07/14 08:39:25;;;;;;;2.17;0.70;;;;;;;;;;5097188;28;20478;-80
2022/07/14 08:41:51;;;;;;;1.42;0.93;;;;;;;;;;5101039;28;20035;-82
2022/07/14 08:44:17;;;;;;;0.75;0.63;;;;;;;;;;5108525;28;20020;-85
2022/07/14 08:46:43;;;;;;;2.90;1.20;;;;;;;;;;5108604;28;20051;-85
2022/07/14 08:49:10;;;;;;;0.47;0.47;;;;;;;;;;5120792;28;20046;-85
2022/07/14 08:51:39;;;;;;;1.35;0.95;;;;;;;;;;5105153;28;20111;-85
2022/07/14 08:54:05;;;;;;;1.48;1.08;;;;;;;;;;5110588;28;20024;-86
2022/07/14 08:56:30;;;;;;;3.50;1.33;;;;;;;;;;5108658;28;20031;-82
2022/07/14 08:58:56;;;;;;;0.75;0.65;;;;;;;;;;5107022;28;20055;-81
2022/07/14 09:01:26;;;;;;;0.45;0.30;;;;;;;;;;5102426;28;20081;-85
2022/07/14 09:03:52;;;;;;;0.85;0.60;;;;;;;;;;5111558;28;20043;-85
2022/07/14 09:06:46;;;;;;;2.70;0.75;;;;;;;;;;5089943;28;20030;-87
2022/07/14 09:09:17;;;;;;;0.45;0.38;;;;;;;;;;5097870;28;20031;-83
2022/07/14 09:11:58;;;;;;;0.93;0.85;;;;;;;;;;5095248;28;20047;-82
2022/07/14 09:14:26;;;;;;;1.13;0.68;;;;;;;;;;5094714;28;20031;-81
2022/07/14 09:17:15;;;;;;;4.32;1.13;;;;;;;;;;5093170;28;20359;-84
2022/07/14 09:20:01;;;;;;;0.90;0.70;;;;;;;;;;5100772;28;20084;-85
2022/07/14 09:22:27;;;;;;;0.95;0.85;;;;;;;;;;5091241;28;20020;-82
2022/07/14 09:24:52;;;;;;;0.45;0.45;;;;;;;;;;5098004;28;20042;-85
2022/07/14 09:27:22;;;;;;;5.20;1.77;;;;;;;;;;5091425;28;20102;-84
2022/07/14 09:29:55;;;;;;;0.80;0.20;;;;;;;;;;5091713;28;20027;-86
2022/07/14 09:32:40;;;;;;;0.88;0.70;;;;;;;;;;5099408;28;20495;-84
2022/07/14 09:35:06;;;;;;;1.90;0.63;;;;;;;;;;5104161;28;20357;-85
2022/07/14 09:37:32;;;;;;;0.82;0.50;;;;;;;;;;5099015;28;20032;-82
2022/07/14 09:39:58;;;;;;;5.40;0.75;;;;;;;;;;5098767;28;20035;-83
2022/07/14 09:42:50;;;;;;;0.80;0.43;;;;;;;;;;5103182;28;20464;-82
2022/07/14 09:45:15;;;;;;;0.50;0.45;;;;;;;;;;5100656;28;20040;-87
2022/07/14 09:47:59;;;;;;;1.15;0.43;;;;;;;;;;5101392;28;20105;-82
2022/07/14 09:50:37;;;;;;;0.10;0.10;;;;;;;;;;5092747;28;20119;-85
2022/07/14 09:53:34;;;;;;;1.27;0.25;;;;;;;;;;5098088;28;20020;-84
2022/07/14 09:56:29;;;;;;;1.88;0.90;;;;;;;;;;5115014;27;20112;-82
2022/07/14 09:58:56;;;;;;;0.32;0.30;;;;;;;;;;5056332;28;20051;-85
2022/07/14 10:01:23;;;;;;;0.30;0.30;;;;;;;;;;5043508;28;20063;-85
2022/07/14 10:03:53;;;;;;;0.68;0.35;;;;;;;;;;5045394;28;20036;-86
2022/07/14 10:06:20;;;;;;;3.47;1.52;;;;;;;;;;5055865;28;20095;-84
2022/07/14 10:08:48;;;;;;;1.20;0.60;;;;;;;;;;5055094;28;20539;-85
2022/07/14 10:11:13;;;;;;;1.75;0.43;;;;;;;;;;5067719;28;20075;-82
2022/07/14 10:13:39;;;;;;;1.35;0.55;;;;;;;;;;5054277;28;20091;-82
2022/07/14 10:16:08;;;;;;;1.00;0.30;;;;;;;;;;5039774;28;20438;-85
2022/07/14 10:18:33;;;;;;;2.30;0.85;;;;;;;;;;5049831;28;20033;-85
2022/07/14 10:21:00;;;;;;;1.70;0.50;;;;;;;;;;5072423;28;20051;-84
2022/07/14 10:23:26;;;;;;;0.35;0.30;;;;;;;;;;5035555;28;20140;-85
2022/07/14 10:25:54;;;;;;;1.27;0.55;;;;;;;;;;5035528;28;20039;-80
2022/07/14 10:28:21;;;;;;;1.27;0.75;;;;;;;;;;5023320;28;20103;-82
2022/07/14 10:30:58;;;;;;;0.30;0.30;;;;;;;;;;5021998;28;20021;-82
2022/07/14 10:33:48;;;;;;;2.25;0.75;;;;;;;;;;5053270;28;20074;-81
2022/07/14 10:36:32;;;;;;;2.08;0.47;;;;;;;;;;5085608;28;20111;-79
2022/07/14 10:39:19;;;;;;;0.17;0.05;;;;;;;;;;5094890;28;20032;-80
2022/07/14 10:42:00;;;;;;;1.95;0.50;;;;;;;;;;5089259;28;20419;-81
2022/07/14 10:44:30;;;;;;;2.30;0.68;;;;;;;;;;5071527;28;20554;-81
2022/07/14 10:47:13;;;;;;;0.63;0.30;;;;;;;;;;5093320;28;20049;-81
2022/07/14 10:50:12;;;;;;;0.70;0.50;;;;;;;;;;5096511;28;20102;-81
2022/07/14 10:53:03;;;;;;;0.93;0.77;;;;;;;;;;5093875;28;20058;-81
2022/07/14 10:55:28;;;;;;;0.73;0.30;;;;;;;;;;5086609;28;20405;-82
2022/07/14 10:58:03;;;;;;;4.32;1.02;;;;;;;;;;5098661;28;20107;-81
2022/07/14 11:00:55;;;;;;;1.65;0.57;;;;;;;;;;5095123;28;20053;-80
2022/07/14 11:03:35;;;;;;;0.85;0.75;;;;;;;;;;5094076;28;20027;-76
2022/07/14 11:08:31;;;;;;;0.52;0.25;;;;;;;;;;5096332;28;20114;-79
2022/07/14 11:10:58;;;;;;;0.68;0.52;;;;;;;;;;5088630;28;20024;-81
2022/07/14 11:13:24;;;;;;;1.98;0.32;;;;;;;;;;5089401;28;20097;-81
2022/07/14 11:16:02;;;;;;;0.47;0.43;;;;;;;;;;5096180;28;20472;-82
2022/07/14 11:18:37;;;;;;;1.88;0.50;;;;;;;;;;5092223;28;20424;-80
2022/07/14 11:21:17;;;;;;;0.30;0.30;;;;;;;;;;5093948;28;20030;-82
2022/07/14 11:23:46;;;;;;;0.60;0.53;;;;;;;;;;5079569;28;20031;-82
2022/07/14 11:26:37;;;;;;;0.40;0.40;;;;;;;;;;5097208;28;20340;-81
2022/07/14 11:29:03;;;;;;;;;;;;;;;;;;5094220;28;20066;-81
2022/07/14 11:32:08;;;;;;;0.65;0.32;;;;;;;;;;5091883;28;19959;-81
2022/07/14 11:37:20;;;;;;;0.57;0.52;;;;;;;;;;5092801;28;20093;-79
2022/07/14 11:39:57;;;;;;;1.27;0.68;;;;;;;;;;5098733;28;20502;-79
2022/07/14 11:42:25;;;;;;;2.58;1.08;;;;;;;;;;5090718;28;20051;-80
2022/07/14 11:44:54;;;;;;;0.25;0.25;;;;;;;;;;5105014;28;20101;-80
2022/07/14 11:47:24;;;;;;;5.05;0.60;;;;;;;;;;5095613;28;20130;-81
2022/07/14 11:49:59;;;;;;;1.15;0.60;;;;;;;;;;5096020;28;20061;-78
2022/07/14 11:52:37;;;;;;;1.75;1.08;;;;;;;;;;5097987;28;20039;-79
2022/07/14 11:55:06;;;;;;;1.00;0.50;;;;;;;;;;5093229;28;20092;-79
2022/07/14 11:57:32;;;;;;;0.73;0.73;;;;;;;;;;5093704;28;20028;-78
2022/07/14 12:00:08;;;;;;;0.35;0.35;;;;;;;;;;5095902;28;20034;-78
2022/07/14 12:02:54;;;;;;;7.43;1.30;;;;;;;;;;5099273;28;20086;-79
2022/07/14 12:05:30;;;;;;;0.70;0.50;;;;;;;;;;5093007;28;20043;-81
2022/07/14 12:07:56;;;;;;;0.60;0.60;;;;;;;;;;5094269;28;20027;-80
2022/07/14 12:10:41;;;;;;;1.30;0.47;;;;;;;;;;5091154;28;20043;-80
2022/07/14 12:13:08;;;;;;;0.43;0.43;;;;;;;;;;5104838;27;20031;-80
2022/07/14 12:15:33;;;;;;;0.57;0.57;;;;;;;;;;5097241;28;20031;-76
2022/07/14 12:18:04;;;;;;;0.65;0.50;;;;;;;;;;5090958;28;20333;-79
2022/07/14 12:20:46;;;;;;;;;;;;;;;;;;5084465;28;20024;-78
2022/07/14 12:23:12;;;;;;;1.00;0.82;;;;;;;;;;5093965;28;20249;-79
2022/07/14 12:25:41;;;;;;;0.30;0.30;;;;;;;;;;5090737;28;20028;-80
2022/07/14 12:28:10;;;;;;;0.45;0.45;;;;;;;;;;5097147;28;20449;-79
2022/07/14 12:30:51;;;;;;;0.55;0.43;;;;;;;;;;5086106;28;20154;-81
2022/07/14 12:33:44;;;;;;;1.20;0.60;;;;;;;;;;5090253;28;20024;-79
2022/07/14 12:36:18;;;;;;;0.55;0.55;;;;;;;;;;5088629;28;20036;-80
2022/07/14 12:38:46;;;;;;;0.85;0.55;;;;;;;;;;5088576;28;20158;-80
2022/07/14 12:41:16;;;;;;;0.90;0.40;;;;;;;;;;5093107;28;20028;-80
2022/07/14 12:43:45;;;;;;;1.27;0.75;;;;;;;;;;5093945;28;20446;-80
2022/07/14 12:46:17;;;;;;;0.30;0.30;;;;;;;;;;5095875;28;20019;-80
2022/07/14 12:48:49;;;;;;;0.35;0.35;;;;;;;;;;5094553;28;20480;-82
2022/07/14 12:51:20;;;;;;;0.50;0.50;;;;;;;;;;5104640;28;20499;-80
2022/07/14 12:54:15;;;;;;;0.30;0.30;;;;;;;;;;5102910;28;20036;-81
2022/07/14 12:56:51;;;;;;;0.70;0.38;;;;;;;;;;5090848;28;20024;-79
2022/07/14 12:59:20;;;;;;;0.55;0.47;;;;;;;;;;5094263;28;20371;-79
2022/07/14 13:01:53;;;;;;;1.65;0.70;;;;;;;;;;5096304;28;20024;-78
2022/07/14 13:04:37;;;;;;;1.42;0.30;;;;;;;;;;5087979;28;20103;-78
2022/07/14 13:07:22;;;;;;;0.30;0.30;;;;;;;;;;5085034;28;20036;-79
2022/07/14 13:10:09;;;;;;;1.73;0.40;;;;;;;;;;5093779;28;20390;-81
2022/07/14 13:12:36;;;;;;;0.90;0.70;;;;;;;;;;5091058;28;20028;-81
2022/07/14 13:15:09;;;;;;;1.40;1.05;;;;;;;;;;5089186;28;20038;-80
2022/07/14 13:17:54;;;;;;;13.35;1.42;;;;;;;;;;5089799;28;20016;-81
2022/07/14 13:20:57;;;;;;;7.28;1.05;;;;;;;;;;5093408;28;20031;-85
2022/07/14 13:23:38;;;;;;;11.85;2.05;;;;;;;;;;5096103;28;20043;-87
2022/07/14 13:26:16;;;;;;;0.90;0.55;;;;;;;;;;5090705;28;20073;-83
2022/07/14 13:28:51;;;;;;;1.65;0.77;;;;;;;;;;5088741;28;20032;-85
2022/07/14 13:31:18;;;;;;;1.05;0.50;;;;;;;;;;5092203;28;20025;-86
2022/07/14 13:33:49;;;;;;;0.55;0.30;;;;;;;;;;5094657;28;20460;-88
2022/07/14 13:36:17;;;;;;;0.32;0.32;;;;;;;;;;5100465;28;20035;-88
2022/07/14 13:38:43;;;;;;;0.17;0.17;;;;;;;;;;5104027;28;20115;-89
2022/07/14 13:41:10;;;;;;;0.47;0.35;;;;;;;;;;5094966;28;20035;-87
2022/07/14 13:43:36;;;;;;;0.73;0.65;;;;;;;;;;5096610;28;20053;-83
2022/07/14 13:46:05;;;;;;;0.68;0.68;;;;;;;;;;5108242;28;20073;-87
2022/07/14 13:48:30;;;;;;;0.30;0.30;;;;;;;;;;5113686;28;20038;-88
2022/07/14 13:53:42;;;;;;;0.35;0.20;;;;;;;;;;5094434;28;20038;-88
2022/07/14 13:56:07;;;;;;;0.52;0.38;;;;;;;;;;5098505;28;20432;-85
2022/07/14 13:58:33;;;;;;;1.10;0.93;;;;;;;;;;5100503;28;20107;-88
2022/07/14 14:01:04;;;;;;;0.68;0.35;;;;;;;;;;5108611;28;20036;-87
2022/07/14 14:03:29;;;;;;;0.40;0.40;;;;;;;;;;5095068;28;20028;-87
2022/07/14 14:05:57;;;;;;;0.30;0.30;;;;;;;;;;5102900;28;20031;-86
2022/07/14 14:08:26;;;;;;;0.32;0.32;;;;;;;;;;5115374;28;20122;-89
2022/07/14 14:10:52;;;;;;;0.45;0.45;;;;;;;;;;5102152;28;20042;-86
2022/07/14 14:13:18;;;;;;;0.55;0.47;;;;;;;;;;5108074;28;20352;-89
2022/07/14 14:15:44;;;;;;;1.25;0.47;;;;;;;;;;5105377;28;20024;-89
2022/07/14 14:18:09;;;;;;;0.47;0.47;;;;;;;;;;5114531;28;20039;-81
2022/07/14 14:20:38;;;;;;;0.20;0.20;;;;;;;;;;5121349;28;20071;-86
2022/07/14 14:23:06;;;;;;;0.20;0.20;;;;;;;;;;5118372;28;20049;-88
2022/07/14 14:25:33;;;;;;;0.80;0.30;;;;;;;;;;5116572;28;20110;-87
2022/07/14 14:28:01;;;;;;;1.13;0.45;;;;;;;;;;5107436;28;20028;-86
2022/07/14 14:30:29;;;;;;;1.25;0.80;;;;;;;;;;5114957;28;20028;-84
2022/07/14 14:32:54;;;;;;;0.45;0.25;;;;;;;;;;5114622;28;20058;-86
2022/07/14 14:35:20;;;;;;;0.68;0.68;;;;;;;;;;5100004;28;20028;-85
2022/07/14 14:37:46;;;;;;;0.90;0.73;;;;;;;;;;5112211;28;20027;-88
2022/07/14 14:40:11;;;;;;;0.73;0.57;;;;;;;;;;5124731;28;20022;-86
2022/07/14 14:42:37;;;;;;;1.08;0.98;;;;;;;;;;5107338;28;20058;-88
2022/07/14 14:45:07;;;;;;;0.35;0.30;;;;;;;;;;5120863;28;20023;-87
2022/07/14 14:47:40;;;;;;;1.27;0.68;;;;;;;;;;5112154;28;20110;-87
2022/07/14 14:50:07;;;;;;;1.50;0.47;;;;;;;;;;5118143;27;20024;-87
2022/07/14 14:52:35;;;;;;;0.52;0.40;;;;;;;;;;5114221;28;20154;-88
2022/07/14 14:55:00;;;;;;;0.25;0.20;;;;;;;;;;5107177;28;20031;-87
2022/07/14 14:57:26;;;;;;;0.50;0.50;;;;;;;;;;5108594;28;20038;-85
2022/07/14 14:59:52;;;;;;;0.50;0.47;;;;;;;;;;5098043;28;20016;-85
2022/07/14 15:02:19;;;;;;;0.47;0.22;;;;;;;;;;5107810;28;20035;-89
2022/07/14 15:04:45;;;;;;;0.20;0.17;;;;;;;;;;5098740;28;20122;-87
2022/07/14 15:07:10;;;;;;;1.75;1.00;;;;;;;;;;5110471;28;20531;-86
2022/07/14 15:09:36;;;;;;;1.23;0.90;;;;;;;;;;5095100;28;20391;-85
2022/07/14 15:12:04;;;;;;;1.55;0.52;;;;;;;;;;5100311;28;20020;-88
2022/07/14 15:14:29;;;;;;;1.38;0.85;;;;;;;;;;5109603;28;20028;-88